Time;durP1;ratioP1;P1;durP2;ratioP2;P2;SDS_P1;SDS_P2;PMS_P1;PMS_P2;Temp;Humidity;BMP_temperature;BMP_pressure;BME280_temperature;BME280_humidity;BME280_pressure;Samples;Min_cycle;Max_cycle;Signal;HPM_P1;HPM_P2
2022/01/11 00:01:12;;;;;;;;;;;;;;;;;;5066179;28;19925;-64
2022/01/11 00:03:40;;;;;;;;;;;;;;;;;;5064043;28;20386;-63
2022/01/11 00:06:28;;;;;;;;;;;;;;;;;;5064350;28;19956;-64
2022/01/11 00:08:59;;;;;;;;;;;;;;;;;;5064555;28;20460;-63
2022/01/11 00:11:25;;;;;;;;;;;;;;;;;;5065507;28;19991;-63
2022/01/11 00:13:52;;;;;;;;;;;;;;;;;;5064877;28;19968;-63
2022/01/11 00:16:18;;;;;;;;;;;;;;;;;;5065696;28;20004;-67
2022/01/11 00:18:44;;;;;;;;;;;;;;;;;;5066156;28;19925;-63
2022/01/11 00:21:10;;;;;;;;;;;;;;;;;;5065865;28;19978;-63
2022/01/11 00:26:02;;;;;;;;;;;;;;;;;;5065939;28;19924;-63
2022/01/11 00:28:29;;;;;;;;;;;;;;;;;;5064770;28;20481;-62
2022/01/11 00:30:55;;;;;;;;;;;;;;;;;;5065902;28;19928;-63
2022/01/11 00:33:28;;;;;;;;;;;;;;;;;;5065068;28;19946;-63
2022/01/11 00:35:58;;;;;;;;;;;;;;;;;;5065988;28;20428;-63
2022/01/11 00:38:24;;;;;;;;;;;;;;;;;;5065497;28;19929;-63
2022/01/11 00:40:50;;;;;;;;;;;;;;;;;;5065438;28;19931;-63
2022/01/11 00:43:16;;;;;;;;;;;;;;;;;;5065138;28;20623;-63
2022/01/11 00:45:42;;;;;;;;;;;;;;;;;;5065313;28;19925;-63
2022/01/11 00:48:08;;;;;;;;;;;;;;;;;;5065101;28;20390;-63
2022/01/11 00:50:36;;;;;;;;;;;;;;;;;;5065047;28;20018;-63
2022/01/11 00:53:02;;;;;;;;;;;;;;;;;;5065292;28;19924;-63
2022/01/11 00:55:28;;;;;;;;;;;;;;;;;;5065516;28;20397;-63
2022/01/11 00:57:54;;;;;;;;;;;;;;;;;;5064608;28;20015;-63
2022/01/11 01:00:20;;;;;;;;;;;;;;;;;;5063454;28;20463;-64
2022/01/11 01:02:46;;;;;;;;;;;;;;;;;;5065902;28;19931;-63
2022/01/11 01:05:12;;;;;;;;;;;;;;;;;;5065311;28;19999;-63
2022/01/11 01:07:38;;;;;;;;;;;;;;;;;;5065093;28;19932;-63
2022/01/11 01:10:08;;;;;;;;;;;;;;;;;;5065425;28;19935;-63
2022/01/11 01:12:34;;;;;;;;;;;;;;;;;;5064357;28;19929;-64
2022/01/11 01:15:00;;;;;;;;;;;;;;;;;;5067994;28;19949;-64
2022/01/11 01:17:26;;;;;;;;;;;;;;;;;;5068724;28;19924;-64
2022/01/11 01:19:53;;;;;;;;;;;;;;;;;;5069420;28;20422;-64
2022/01/11 01:22:19;;;;;;;;;;;;;;;;;;5068833;28;19963;-65
2022/01/11 01:24:46;;;;;;;;;;;;;;;;;;5069552;28;20369;-64
2022/01/11 01:27:12;;;;;;;;;;;;;;;;;;5067979;28;19947;-64
2022/01/11 01:29:40;;;;;;;;;;;;;;;;;;5068522;28;20398;-64
2022/01/11 01:32:06;;;;;;;;;;;;;;;;;;5069332;28;20021;-64
2022/01/11 01:34:32;;;;;;;;;;;;;;;;;;5068868;28;19983;-64
2022/01/11 01:36:58;;;;;;;;;;;;;;;;;;5068408;28;19932;-64
2022/01/11 01:39:25;;;;;;;;;;;;;;;;;;5068696;28;20340;-64
2022/01/11 01:41:51;;;;;;;;;;;;;;;;;;5068126;28;20009;-64
2022/01/11 01:44:17;;;;;;;;;;;;;;;;;;5069021;28;19925;-64
2022/01/11 01:46:43;;;;;;;;;;;;;;;;;;5068861;28;19932;-64
2022/01/11 01:49:15;;;;;;;;;;;;;;;;;;5068481;28;20467;-64
2022/01/11 01:51:41;;;;;;;;;;;;;;;;;;5066941;28;20404;-64
2022/01/11 01:54:07;;;;;;;;;;;;;;;;;;5068210;28;19924;-64
2022/01/11 01:56:33;;;;;;;;;;;;;;;;;;5068109;28;19924;-64
2022/01/11 01:58:59;;;;;;;;;;;;;;;;;;5068138;28;19948;-64
2022/01/11 02:01:26;;;;;;;;;;;;;;;;;;5068261;28;20386;-64
2022/01/11 02:03:52;;;;;;;;;;;;;;;;;;5064334;28;19917;-64
2022/01/11 02:06:18;;;;;;;;;;;;;;;;;;5067884;28;19925;-66
2022/01/11 02:08:44;;;;;;;;;;;;;;;;;;5068770;28;20283;-64
2022/01/11 02:11:10;;;;;;;;;;;;;;;;;;5059668;22;20425;-64
2022/01/11 02:13:36;;;;;;;;;;;;;;;;;;5048562;28;19963;-64
2022/01/11 02:16:03;;;;;;;;;;;;;;;;;;5067731;28;19925;-64
2022/01/11 02:18:29;;;;;;;;;;;;;;;;;;5048711;28;19932;-64
2022/01/11 02:20:58;;;;;;;;;;;;;;;;;;5054040;28;20333;-64
2022/01/11 02:23:24;;;;;;;;;;;;;;;;;;5065655;28;19950;-64
2022/01/11 02:25:50;;;;;;;;;;;;;;;;;;5065463;28;19943;-64
2022/01/11 02:28:16;;;;;;;;;;;;;;;;;;5062012;28;20369;-64
2022/01/11 02:30:42;;;;;;;;;;;;;;;;;;5048416;28;19932;-64
2022/01/11 02:33:18;;;;;;;;;;;;;;;;;;5048470;28;19936;-64
2022/01/11 02:35:44;;;;;;;;;;;;;;;;;;5054553;28;19932;-64
2022/01/11 02:38:10;;;;;;;;;;;;;;;;;;5065473;28;19924;-65
2022/01/11 02:40:36;;;;;;;;;;;;;;;;;;5067054;28;19947;-65
2022/01/11 02:43:02;;;;;;;;;;;;;;;;;;5066529;28;19924;-64
2022/01/11 02:45:28;;;;;;;;;;;;;;;;;;5066903;28;20393;-64
2022/01/11 02:47:54;;;;;;;;;;;;;;;;;;5065599;28;19924;-64
2022/01/11 02:50:20;;;;;;;;;;;;;;;;;;5063739;28;19925;-64
2022/01/11 02:52:46;;;;;;;;;;;;;;;;;;5062844;28;20130;-64
2022/01/11 02:55:12;;;;;;;;;;;;;;;;;;5048503;28;20011;-64
2022/01/11 02:57:38;;;;;;;;;;;;;;;;;;5047292;28;20318;-64
2022/01/11 03:00:04;;;;;;;;;;;;;;;;;;5047750;28;19924;-64
2022/01/11 03:02:30;;;;;;;;;;;;;;;;;;5047818;28;19925;-64
2022/01/11 03:04:56;;;;;;;;;;;;;;;;;;5047727;28;19925;-64
2022/01/11 03:07:22;;;;;;;;;;;;;;;;;;5047422;28;20377;-65
2022/01/11 03:10:01;;;;;;;;;;;;;;;;;;5047498;28;19978;-65
2022/01/11 03:12:27;;;;;;;;;;;;;;;;;;5047037;28;19924;-64
2022/01/11 03:14:53;;;;;;;;;;;;;;;;;;5047659;28;19925;-64
2022/01/11 03:17:19;;;;;;;;;;;;;;;;;;5048312;28;19921;-64
2022/01/11 03:19:45;;;;;;;;;;;;;;;;;;5043910;28;19932;-64
2022/01/11 03:22:11;;;;;;;;;;;;;;;;;;5047508;28;19925;-64
2022/01/11 03:24:38;;;;;;;;;;;;;;;;;;5047349;28;20080;-64
2022/01/11 03:27:06;;;;;;;;;;;;;;;;;;5049612;28;20020;-64
2022/01/11 03:29:32;;;;;;;;;;;;;;;;;;5051723;28;19971;-64
2022/01/11 03:31:58;;;;;;;;;;;;;;;;;;5047470;28;19983;-65
2022/01/11 03:34:24;;;;;;;;;;;;;;;;;;5046792;28;20332;-64
2022/01/11 03:36:50;;;;;;;;;;;;;;;;;;5047085;28;19928;-65
2022/01/11 03:39:16;;;;;;;;;;;;;;;;;;5047416;28;20394;-64
2022/01/11 03:41:42;;;;;;;;;;;;;;;;;;5047833;28;19924;-64
2022/01/11 03:44:08;;;;;;;;;;;;;;;;;;5046778;28;19932;-64
2022/01/11 03:46:34;;;;;;;;;;;;;;;;;;5047193;28;20083;-65
2022/01/11 03:49:00;;;;;;;;;;;;;;;;;;5046718;28;20454;-65
2022/01/11 03:51:26;;;;;;;;;;;;;;;;;;5046879;28;19935;-64
2022/01/11 03:54:04;;;;;;;;;;;;;;;;;;5048042;28;19925;-65
2022/01/11 03:56:30;;;;;;;;;;;;;;;;;;5046054;28;19968;-65
2022/01/11 03:58:56;;;;;;;;;;;;;;;;;;5057374;28;20021;-65
2022/01/11 04:01:22;;;;;;;;;;;;;;;;;;5064725;28;19971;-65
2022/01/11 04:03:48;;;;;;;;;;;;;;;;;;5062069;28;19928;-65
2022/01/11 04:06:16;;;;;;;;;;;;;;;;;;5049621;28;19932;-64
2022/01/11 04:08:42;;;;;;;;;;;;;;;;;;5046751;28;19925;-64
2022/01/11 04:11:08;;;;;;;;;;;;;;;;;;5046035;28;20528;-65
2022/01/11 04:13:34;;;;;;;;;;;;;;;;;;5045709;28;19976;-65
2022/01/11 04:16:00;;;;;;;;;;;;;;;;;;5045541;28;19929;-64
2022/01/11 04:18:26;;;;;;;;;;;;;;;;;;5049917;28;19967;-65
2022/01/11 04:20:52;;;;;;;;;;;;;;;;;;5064991;28;20018;-64
2022/01/11 04:23:18;;;;;;;;;;;;;;;;;;5064981;28;19929;-65
2022/01/11 04:25:44;;;;;;;;;;;;;;;;;;5065829;28;19979;-65
2022/01/11 04:28:10;;;;;;;;;;;;;;;;;;5064120;28;19971;-65
2022/01/11 04:30:37;;;;;;;;;;;;;;;;;;5063989;28;20293;-65
2022/01/11 04:33:03;;;;;;;;;;;;;;;;;;5046329;28;20008;-65
2022/01/11 04:35:29;;;;;;;;;;;;;;;;;;5046139;28;19925;-64
2022/01/11 04:37:55;;;;;;;;;;;;;;;;;;5046318;28;19932;-65
2022/01/11 04:40:21;;;;;;;;;;;;;;;;;;5045727;28;20400;-65
2022/01/11 04:42:47;;;;;;;;;;;;;;;;;;5046941;28;19925;-65
2022/01/11 04:45:14;;;;;;;;;;;;;;;;;;5047547;28;19925;-64
2022/01/11 04:47:40;;;;;;;;;;;;;;;;;;5046059;28;20758;-65
2022/01/11 04:50:06;;;;;;;;;;;;;;;;;;5045534;28;20023;-64
2022/01/11 04:52:32;;;;;;;;;;;;;;;;;;5045990;28;19925;-64
2022/01/11 04:54:58;;;;;;;;;;;;;;;;;;5046044;28;20366;-65
2022/01/11 04:57:24;;;;;;;;;;;;;;;;;;5044973;28;19925;-65
2022/01/11 04:59:50;;;;;;;;;;;;;;;;;;5045554;28;19933;-65
2022/01/11 05:02:16;;;;;;;;;;;;;;;;;;5046414;28;19925;-65
2022/01/11 05:04:43;;;;;;;;;;;;;;;;;;5045984;28;20070;-65
2022/01/11 05:07:09;;;;;;;;;;;;;;;;;;5045999;28;20462;-65
2022/01/11 05:09:35;;;;;;;;;;;;;;;;;;5046455;28;20517;-65
2022/01/11 05:12:01;;;;;;;;;;;;;;;;;;5045059;28;19929;-64
2022/01/11 05:14:27;;;;;;;;;;;;;;;;;;5045738;28;20010;-65
2022/01/11 05:16:53;;;;;;;;;;;;;;;;;;5045759;28;20194;-65
2022/01/11 05:19:19;;;;;;;;;;;;;;;;;;5046736;28;19925;-64
2022/01/11 05:21:45;;;;;;;;;;;;;;;;;;5047342;28;20477;-64
2022/01/11 05:24:11;;;;;;;;;;;;;;;;;;5045857;28;19925;-65
2022/01/11 05:26:37;;;;;;;;;;;;;;;;;;5044540;28;19999;-65
2022/01/11 05:29:03;;;;;;;;;;;;;;;;;;5046033;28;20012;-65
2022/01/11 05:31:29;;;;;;;;;;;;;;;;;;5070463;28;20058;-62
2022/01/11 05:33:55;;;;;;;;;;;;;;;;;;5063430;28;19924;-62
2022/01/11 05:36:21;;;;;;;;;;;;;;;;;;5063893;28;20341;-63
2022/01/11 05:38:47;;;;;;;;;;;;;;;;;;5064759;28;19931;-63
2022/01/11 05:41:13;;;;;;;;;;;;;;;;;;5063836;28;19924;-62
2022/01/11 05:43:39;;;;;;;;;;;;;;;;;;5056991;28;19928;-63
2022/01/11 05:46:06;;;;;;;;;;;;;;;;;;5046458;28;20337;-62
2022/01/11 05:48:32;;;;;;;;;;;;;;;;;;5045226;28;20441;-63
2022/01/11 05:50:58;;;;;;;;;;;;;;;;;;5051700;28;20014;-64
2022/01/11 05:53:24;;;;;;;;;;;;;;;;;;5063954;28;20377;-63
2022/01/11 05:55:50;;;;;;;;;;;;;;;;;;5064041;28;20003;-63
2022/01/11 05:58:16;;;;;;;;;;;;;;;;;;5046704;28;19932;-63
2022/01/11 06:00:42;;;;;;;;;;;;;;;;;;5060788;28;20377;-67
2022/01/11 06:03:08;;;;;;;;;;;;;;;;;;5068421;28;19936;-67
2022/01/11 06:05:38;;;;;;;;;;;;;;;;;;5067125;28;19928;-68
2022/01/11 06:08:04;;;;;;;;;;;;;;;;;;5066215;28;19978;-65
2022/01/11 06:10:30;;;;;;;;;;;;;;;;;;5052836;28;19933;-65
2022/01/11 06:12:56;;;;;;;;;;;;;;;;;;5045456;28;19935;-65
2022/01/11 06:15:22;;;;;;;;;;;;;;;;;;5047066;28;19987;-66
2022/01/11 06:17:48;;;;;;;;;;;;;;;;;;5048155;28;20413;-68
2022/01/11 06:20:14;;;;;;;;;;;;;;;;;;5046918;28;19991;-65
2022/01/11 06:22:40;;;;;;;;;;;;;;;;;;5053822;28;20309;-66
2022/01/11 06:25:06;;;;;;;;;;;;;;;;;;5054453;28;19925;-65
2022/01/11 06:27:32;;;;;;;;;;;;;;;;;;5050866;28;19932;-65
2022/01/11 06:29:58;;;;;;;;;;;;;;;;;;5045375;28;20278;-65
2022/01/11 06:32:24;;;;;;;;;;;;;;;;;;5045398;28;19933;-65
2022/01/11 06:34:52;;;;;;;;;;;;;;;;;;5043717;28;20020;-66
2022/01/11 06:37:18;;;;;;;;;;;;;;;;;;5040948;28;19925;-66
2022/01/11 06:39:44;;;;;;;;;;;;;;;;;;5042620;28;19929;-66
2022/01/11 06:42:10;;;;;;;;;;;;;;;;;;5042308;28;20622;-67
2022/01/11 06:44:38;;;;;;;;;;;;;;;;;;5044363;28;19929;-67
2022/01/11 06:47:04;;;;;;;;;;;;;;;;;;5045166;28;20022;-65
2022/01/11 06:49:30;;;;;;;;;;;;;;;;;;5042678;28;19991;-65
2022/01/11 06:51:56;;;;;;;;;;;;;;;;;;5041802;28;20378;-66
2022/01/11 06:54:22;;;;;;;;;;;;;;;;;;5042897;28;20024;-67
2022/01/11 06:56:48;;;;;;;;;;;;;;;;;;5042429;28;20297;-67
2022/01/11 06:59:14;;;;;;;;;;;;;;;;;;5044158;28;19936;-65
2022/01/11 07:01:40;;;;;;;;;;;;;;;;;;5042543;28;19925;-65
2022/01/11 07:04:06;;;;;;;;;;;;;;;;;;5047581;28;19927;-63
2022/01/11 07:06:32;;;;;;;;;;;;;;;;;;5047318;28;19925;-65
2022/01/11 07:08:58;;;;;;;;;;;;;;;;;;5046809;28;19932;-64
2022/01/11 07:11:24;;;;;;;;;;;;;;;;;;5045946;28;20088;-64
2022/01/11 07:13:50;;;;;;;;;;;;;;;;;;5046000;28;19925;-65
2022/01/11 07:16:16;;;;;;;;;;;;;;;;;;5047401;28;19928;-64
2022/01/11 07:18:44;;;;;;;;;;;;;;;;;;5046300;28;20370;-64
2022/01/11 07:21:10;;;;;;;;;;;;;;;;;;5046960;28;19924;-64
2022/01/11 07:23:36;;;;;;;;;;;;;;;;;;5046446;28;20325;-65
2022/01/11 07:26:02;;;;;;;;;;;;;;;;;;5045850;28;19924;-64
2022/01/11 07:28:31;;;;;;;;;;;;;;;;;;5046837;28;19938;-64
2022/01/11 07:30:57;;;;;;;;;;;;;;;;;;5046867;28;19947;-64
2022/01/11 07:33:23;;;;;;;;;;;;;;;;;;5045954;28;19924;-64
2022/01/11 07:35:49;;;;;;;;;;;;;;;;;;5046740;28;19925;-65
2022/01/11 07:38:15;;;;;;;;;;;;;;;;;;5047245;28;20020;-65
2022/01/11 07:40:41;;;;;;;;;;;;;;;;;;5045689;28;19995;-64
2022/01/11 07:43:07;;;;;;;;;;;;;;;;;;5045993;28;19925;-64
2022/01/11 07:45:33;;;;;;;;;;;;;;;;;;5046509;28;19999;-64
2022/01/11 07:47:59;;;;;;;;;;;;;;;;;;5046391;28;19924;-64
2022/01/11 07:50:25;;;;;;;;;;;;;;;;;;5045846;28;20006;-64
2022/01/11 07:52:51;;;;;;;;;;;;;;;;;;5046371;28;19932;-64
2022/01/11 07:55:17;;;;;;;;;;;;;;;;;;5046758;28;19925;-64
2022/01/11 07:57:43;;;;;;;;;;;;;;;;;;5045491;28;19978;-64
2022/01/11 08:00:09;;;;;;;;;;;;;;;;;;5046360;28;20290;-64
2022/01/11 08:02:35;;;;;;;;;;;;;;;;;;5044833;28;19974;-65
2022/01/11 08:05:01;;;;;;;;;;;;;;;;;;5045866;28;20197;-64
2022/01/11 08:07:27;;;;;;;;;;;;;;;;;;5045780;28;19925;-64
2022/01/11 08:09:53;;;;;;;;;;;;;;;;;;5046145;28;19925;-64
2022/01/11 08:12:19;;;;;;;;;;;;;;;;;;5043257;28;20310;-65
2022/01/11 08:14:45;;;;;;;;;;;;;;;;;;5046541;28;19925;-64
2022/01/11 08:17:11;;;;;;;;;;;;;;;;;;5046071;28;19925;-64
2022/01/11 08:19:37;;;;;;;;;;;;;;;;;;5045627;28;20606;-64
2022/01/11 08:22:03;;;;;;;;;;;;;;;;;;5045259;28;20019;-64
2022/01/11 08:24:29;;;;;;;;;;;;;;;;;;5045162;28;20294;-64
2022/01/11 08:26:55;;;;;;;;;;;;;;;;;;5045079;28;19925;-65
2022/01/11 08:29:22;;;;;;;;;;;;;;;;;;5045142;28;19925;-64
2022/01/11 08:31:48;;;;;;;;;;;;;;;;;;5045918;28;19929;-67
2022/01/11 08:34:14;;;;;;;;;;;;;;;;;;5046348;28;19933;-64
2022/01/11 08:36:40;;;;;;;;;;;;;;;;;;5044897;28;19959;-65
2022/01/11 08:39:06;;;;;;;;;;;;;;;;;;5045788;28;20370;-64
2022/01/11 08:41:32;;;;;;;;;;;;;;;;;;5044722;28;19929;-64
2022/01/11 08:43:58;;;;;;;;;;;;;;;;;;5045506;28;19923;-65
2022/01/11 08:46:24;;;;;;;;;;;;;;;;;;5044823;28;20378;-65
2022/01/11 08:48:50;;;;;;;;;;;;;;;;;;5044872;28;19917;-64
2022/01/11 08:51:16;;;;;;;;;;;;;;;;;;5045068;28;20374;-64
2022/01/11 08:53:42;;;;;;;;;;;;;;;;;;5042729;28;19929;-65
2022/01/11 08:56:08;;;;;;;;;;;;;;;;;;5042285;28;20400;-64
2022/01/11 08:58:34;;;;;;;;;;;;;;;;;;5044025;28;19932;-64
2022/01/11 09:01:00;;;;;;;;;;;;;;;;;;5044786;28;19925;-64
2022/01/11 09:03:26;;;;;;;;;;;;;;;;;;5060273;28;20070;-64
2022/01/11 09:05:52;;;;;;;;;;;;;;;;;;5044664;28;19925;-64
2022/01/11 09:08:18;;;;;;;;;;;;;;;;;;5044824;28;19929;-65
2022/01/11 09:10:44;;;;;;;;;;;;;;;;;;5043983;28;19924;-64
2022/01/11 09:13:11;;;;;;;;;;;;;;;;;;5044799;28;19925;-65
2022/01/11 09:15:37;;;;;;;;;;;;;;;;;;5044823;28;19929;-64
2022/01/11 09:18:03;;;;;;;;;;;;;;;;;;5045077;28;19925;-64
2022/01/11 09:20:29;;;;;;;;;;;;;;;;;;5044763;28;19925;-64
2022/01/11 09:22:55;;;;;;;;;;;;;;;;;;5038935;28;19967;-65
2022/01/11 09:25:21;;;;;;;;;;;;;;;;;;5043130;28;19920;-65
2022/01/11 09:27:47;;;;;;;;;;;;;;;;;;5044345;28;19978;-65
2022/01/11 09:30:13;;;;;;;;;;;;;;;;;;5044629;28;19925;-64
2022/01/11 09:32:41;;;;;;;;;;;;;;;;;;5023112;28;20016;-64
2022/01/11 09:35:06;;;;;;;;;;;;;;;;;;5025465;28;20012;-64
2022/01/11 09:37:32;;;;;;;;;;;;;;;;;;5028727;28;19921;-64
2022/01/11 09:39:58;;;;;;;;;;;;;;;;;;5029343;28;19925;-65
2022/01/11 09:42:24;;;;;;;;;;;;;;;;;;5027874;28;20345;-64
2022/01/11 09:44:51;;;;;;;;;;;;;;;;;;5029248;28;19975;-64
2022/01/11 09:47:17;;;;;;;;;;;;;;;;;;5029279;28;19925;-64
2022/01/11 09:49:43;;;;;;;;;;;;;;;;;;5037894;28;20007;-65
2022/01/11 09:52:09;;;;;;;;;;;;;;;;;;5045327;28;20024;-65
2022/01/11 09:54:35;;;;;;;;;;;;;;;;;;5026949;28;19929;-64
2022/01/11 09:57:01;;;;;;;;;;;;;;;;;;5027350;28;19925;-64
2022/01/11 09:59:27;;;;;;;;;;;;;;;;;;5028433;28;19983;-64
2022/01/11 10:01:53;;;;;;;;;;;;;;;;;;5039416;28;19968;-64
2022/01/11 10:04:19;;;;;;;;;;;;;;;;;;5047616;28;19932;-65
2022/01/11 10:06:45;;;;;;;;;;;;;;;;;;5047682;28;19924;-65
2022/01/11 10:09:11;;;;;;;;;;;;;;;;;;5046858;28;19925;-64
2022/01/11 10:11:37;;;;;;;;;;;;;;;;;;5046219;28;20297;-65
2022/01/11 10:14:03;;;;;;;;;;;;;;;;;;5047512;28;19924;-64
2022/01/11 10:16:29;;;;;;;;;;;;;;;;;;5047148;28;19932;-64
2022/01/11 10:18:55;;;;;;;;;;;;;;;;;;5047333;28;19924;-65
2022/01/11 10:21:21;;;;;;;;;;;;;;;;;;5046637;28;19924;-64
2022/01/11 10:23:47;;;;;;;;;;;;;;;;;;5046295;28;20293;-64
2022/01/11 10:26:13;;;;;;;;;;;;;;;;;;5047157;28;19970;-64
2022/01/11 10:28:39;;;;;;;;;;;;;;;;;;5047151;28;19925;-65
2022/01/11 10:31:05;;;;;;;;;;;;;;;;;;5045617;28;20012;-64
2022/01/11 10:33:31;;;;;;;;;;;;;;;;;;5046930;28;20019;-64
2022/01/11 10:35:57;;;;;;;;;;;;;;;;;;5047351;28;19931;-65
2022/01/11 10:38:23;;;;;;;;;;;;;;;;;;5046122;28;20282;-65
2022/01/11 10:40:49;;;;;;;;;;;;;;;;;;5044974;28;20418;-66
2022/01/11 10:43:15;;;;;;;;;;;;;;;;;;5047574;28;20031;-65
2022/01/11 10:45:41;;;;;;;;;;;;;;;;;;5046438;28;20016;-65
2022/01/11 10:48:07;;;;;;;;;;;;;;;;;;5045814;28;20333;-65
2022/01/11 10:50:36;;;;;;;;;;;;;;;;;;5046813;28;19932;-64
2022/01/11 10:53:03;;;;;;;;;;;;;;;;;;5047149;28;19971;-65
2022/01/11 10:55:29;;;;;;;;;;;;;;;;;;5045995;28;19932;-64
2022/01/11 10:57:55;;;;;;;;;;;;;;;;;;5046846;28;19990;-65
2022/01/11 11:00:22;;;;;;;;;;;;;;;;;;5044593;28;20263;-65
2022/01/11 11:02:49;;;;;;;;;;;;;;;;;;5046683;28;19928;-65
2022/01/11 11:05:15;;;;;;;;;;;;;;;;;;5047326;28;19999;-64
2022/01/11 11:07:41;;;;;;;;;;;;;;;;;;5046366;28;19924;-65
2022/01/11 11:10:08;;;;;;;;;;;;;;;;;;5046459;28;19929;-65
2022/01/11 11:12:34;;;;;;;;;;;;;;;;;;5040689;28;19932;-65
2022/01/11 11:15:02;;;;;;;;;;;;;;;;;;5027368;28;19940;-65
2022/01/11 11:17:28;;;;;;;;;;;;;;;;;;5026388;28;20038;-65
2022/01/11 11:19:54;;;;;;;;;;;;;;;;;;5027418;28;19998;-64
2022/01/11 11:22:20;;;;;;;;;;;;;;;;;;5025591;28;19925;-65
2022/01/11 11:24:46;;;;;;;;;;;;;;;;;;5027742;28;19932;-65
2022/01/11 11:27:12;;;;;;;;;;;;;;;;;;5025993;28;20389;-65
2022/01/11 11:29:38;;;;;;;;;;;;;;;;;;5037442;28;19929;-65
2022/01/11 11:32:04;;;;;;;;;;;;;;;;;;5046094;28;19996;-66
2022/01/11 11:34:30;;;;;;;;;;;;;;;;;;5046240;28;19933;-64
2022/01/11 11:36:56;;;;;;;;;;;;;;;;;;5047106;28;19925;-64
2022/01/11 11:39:22;;;;;;;;;;;;;;;;;;5046680;28;19925;-64
2022/01/11 11:41:48;;;;;;;;;;;;;;;;;;5045326;28;19924;-64
2022/01/11 11:44:14;;;;;;;;;;;;;;;;;;5026774;28;19929;-63
2022/01/11 11:46:40;;;;;;;;;;;;;;;;;;5024374;28;19931;-63
2022/01/11 11:49:06;;;;;;;;;;;;;;;;;;5022818;28;19925;-65
2022/01/11 11:51:32;;;;;;;;;;;;;;;;;;5024304;28;19929;-65
2022/01/11 11:53:58;;;;;;;;;;;;;;;;;;5030104;28;19932;-65
2022/01/11 11:56:26;;;;;;;;;;;;;;;;;;5042344;28;21351;-66
2022/01/11 11:58:52;;;;;;;;;;;;;;;;;;5043014;28;19964;-66
2022/01/11 12:01:18;;;;;;;;;;;;;;;;;;5043346;28;19935;-65
2022/01/11 12:03:45;;;;;;;;;;;;;;;;;;5043710;28;19928;-65
2022/01/11 12:06:11;;;;;;;;;;;;;;;;;;5042995;28;20413;-65
2022/01/11 12:08:38;;;;;;;;;;;;;;;;;;5041459;28;19929;-65
2022/01/11 12:11:04;;;;;;;;;;;;;;;;;;5042365;28;20341;-68
2022/01/11 12:13:30;;;;;;;;;;;;;;;;;;5042923;28;19928;-65
2022/01/11 12:15:56;;;;;;;;;;;;;;;;;;5043445;28;20019;-66
2022/01/11 12:18:22;;;;;;;;;;;;;;;;;;5042731;28;20696;-65
2022/01/11 12:20:48;;;;;;;;;;;;;;;;;;5043516;28;19925;-68
2022/01/11 12:23:20;;;;;;;;;;;;;;;;;;5043187;28;19987;-66
2022/01/11 12:25:46;;;;;;;;;;;;;;;;;;5041848;28;19929;-66
2022/01/11 12:28:12;;;;;;;;;;;;;;;;;;5043537;28;19936;-66
2022/01/11 12:30:38;;;;;;;;;;;;;;;;;;5041968;28;19939;-66
2022/01/11 12:33:04;;;;;;;;;;;;;;;;;;5043528;28;19975;-66
2022/01/11 12:35:30;;;;;;;;;;;;;;;;;;5043485;28;20381;-66
2022/01/11 12:37:56;;;;;;;;;;;;;;;;;;5042833;28;19929;-66
2022/01/11 12:40:22;;;;;;;;;;;;;;;;;;5041862;28;19982;-66
2022/01/11 12:42:51;;;;;;;;;;;;;;;;;;5042380;28;19929;-67
2022/01/11 12:47:43;;;;;;;;;;;;;;;;;;5045906;28;19924;-66
2022/01/11 12:50:09;;;;;;;;;;;;;;;;;;5044382;28;19967;-66
2022/01/11 12:52:35;;;;;;;;;;;;;;;;;;5044693;28;19928;-66
2022/01/11 12:55:01;;;;;;;;;;;;;;;;;;5044942;28;19925;-66
2022/01/11 12:57:27;;;;;;;;;;;;;;;;;;5045521;28;19971;-66
2022/01/11 12:59:53;;;;;;;;;;;;;;;;;;5045594;28;19972;-66
2022/01/11 13:02:19;;;;;;;;;;;;;;;;;;5045114;28;19925;-67
2022/01/11 13:04:45;;;;;;;;;;;;;;;;;;5045921;28;19925;-66
2022/01/11 13:07:12;;;;;;;;;;;;;;;;;;5045250;28;19925;-66
2022/01/11 13:09:38;;;;;;;;;;;;;;;;;;5044424;28;20213;-66
2022/01/11 13:12:04;;;;;;;;;;;;;;;;;;5048593;28;20008;-66
2022/01/11 13:14:32;;;;;;;;;;;;;;;;;;5049438;28;19998;-66
2022/01/11 13:16:58;;;;;;;;;;;;;;;;;;5049065;28;19929;-66
2022/01/11 13:19:24;;;;;;;;;;;;;;;;;;5048776;28;19923;-67
2022/01/11 13:21:51;;;;;;;;;;;;;;;;;;5049460;28;19924;-67
2022/01/11 13:24:25;;;;;;;;;;;;;;;;;;5050048;28;19917;-67
2022/01/11 13:26:51;;;;;;;;;;;;;;;;;;5045374;28;19925;-66
2022/01/11 13:29:18;;;;;;;;;;;;;;;;;;5046625;28;19924;-66
2022/01/11 13:31:47;;;;;;;;;;;;;;;;;;5045168;28;19936;-66
2022/01/11 13:34:13;;;;;;;;;;;;;;;;;;5040872;28;19955;-66
2022/01/11 13:36:41;;;;;;;;;;;;;;;;;;5042032;28;19929;-66
2022/01/11 13:39:07;;;;;;;;;;;;;;;;;;5044124;28;19929;-66
2022/01/11 13:41:33;;;;;;;;;;;;;;;;;;5040264;28;20649;-67
2022/01/11 13:43:59;;;;;;;;;;;;;;;;;;5042204;28;19940;-67
2022/01/11 13:46:26;;;;;;;;;;;;;;;;;;5048645;28;20050;-66
2022/01/11 13:48:52;;;;;;;;;;;;;;;;;;5048728;28;19932;-67
2022/01/11 13:51:18;;;;;;;;;;;;;;;;;;5048272;28;19975;-66
2022/01/11 13:53:44;;;;;;;;;;;;;;;;;;5049353;28;19976;-65
2022/01/11 13:56:10;;;;;;;;;;;;;;;;;;5048303;28;19924;-64
2022/01/11 13:58:38;;;;;;;;;;;;;;;;;;5048158;28;19929;-64
2022/01/11 14:01:04;;;;;;;;;;;;;;;;;;5048949;28;20011;-64
2022/01/11 14:03:31;;;;;;;;;;;;;;;;;;5048422;28;20357;-64
2022/01/11 14:05:57;;;;;;;;;;;;;;;;;;5048331;28;20032;-64
2022/01/11 14:08:23;;;;;;;;;;;;;;;;;;5048562;28;20420;-64
2022/01/11 14:10:53;;;;;;;;;;;;;;;;;;5047559;28;19931;-65
2022/01/11 14:13:19;;;;;;;;;;;;;;;;;;5047963;28;19925;-64
2022/01/11 14:15:45;;;;;;;;;;;;;;;;;;5048409;28;19924;-66
2022/01/11 14:18:11;;;;;;;;;;;;;;;;;;5048759;28;20277;-65
2022/01/11 14:20:37;;;;;;;;;;;;;;;;;;5047976;28;19986;-65
2022/01/11 14:23:03;;;;;;;;;;;;;;;;;;5047801;28;19931;-65
2022/01/11 14:25:29;;;;;;;;;;;;;;;;;;5047305;28;19925;-65
2022/01/11 14:27:55;;;;;;;;;;;;;;;;;;5048422;28;20012;-65
2022/01/11 14:30:21;;;;;;;;;;;;;;;;;;5047719;28;20328;-65
2022/01/11 14:32:47;;;;;;;;;;;;;;;;;;5048321;28;19932;-65
2022/01/11 14:35:13;;;;;;;;;;;;;;;;;;5048584;28;19958;-65
2022/01/11 14:37:40;;;;;;;;;;;;;;;;;;5047427;28;19925;-65
2022/01/11 14:40:05;;;;;;;;;;;;;;;;;;5047206;28;19932;-64
2022/01/11 14:42:32;;;;;;;;;;;;;;;;;;5047276;28;19925;-64
2022/01/11 14:44:58;;;;;;;;;;;;;;;;;;5047457;28;20015;-64
2022/01/11 14:47:23;;;;;;;;;;;;;;;;;;5047432;28;20067;-64
2022/01/11 14:49:49;;;;;;;;;;;;;;;;;;5047716;28;20263;-64
2022/01/11 14:52:20;;;;;;;;;;;;;;;;;;5048261;28;19932;-64
2022/01/11 14:54:45;;;;;;;;;;;;;;;;;;5047430;28;19925;-64
2022/01/11 14:57:14;;;;;;;;;;;;;;;;;;5047780;28;19966;-64
2022/01/11 14:59:40;;;;;;;;;;;;;;;;;;5047674;28;19979;-63
2022/01/11 15:02:06;;;;;;;;;;;;;;;;;;5047090;28;19925;-64
2022/01/11 15:04:32;;;;;;;;;;;;;;;;;;5047550;28;20398;-64
2022/01/11 15:06:58;;;;;;;;;;;;;;;;;;5047719;28;19971;-63
2022/01/11 15:09:24;;;;;;;;;;;;;;;;;;5046989;28;19924;-64
2022/01/11 15:11:55;;;;;;;;;;;;;;;;;;5046380;28;20393;-64
2022/01/11 15:14:21;;;;;;;;;;;;;;;;;;5047168;28;19924;-64
2022/01/11 15:16:47;;;;;;;;;;;;;;;;;;5047484;28;19925;-64
2022/01/11 15:19:13;;;;;;;;;;;;;;;;;;5047783;28;19925;-63
2022/01/11 15:21:40;;;;;;;;;;;;;;;;;;5045776;28;19932;-63
2022/01/11 15:24:06;;;;;;;;;;;;;;;;;;5046793;28;19917;-63
2022/01/11 15:26:32;;;;;;;;;;;;;;;;;;5046123;28;19925;-63
2022/01/11 15:28:58;;;;;;;;;;;;;;;;;;5046957;28;19955;-64
2022/01/11 15:31:24;;;;;;;;;;;;;;;;;;5046303;28;20003;-63
2022/01/11 15:33:50;;;;;;;;;;;;;;;;;;5047032;28;20467;-63
2022/01/11 15:36:16;;;;;;;;;;;;;;;;;;5047711;28;19925;-63
2022/01/11 15:38:42;;;;;;;;;;;;;;;;;;5046662;28;19978;-63
2022/01/11 15:41:08;;;;;;;;;;;;;;;;;;5045698;28;20180;-63
2022/01/11 15:43:34;;;;;;;;;;;;;;;;;;5046572;28;19924;-63
2022/01/11 15:46:00;;;;;;;;;;;;;;;;;;5046412;28;19925;-63
2022/01/11 15:48:26;;;;;;;;;;;;;;;;;;5046135;28;19956;-63
2022/01/11 15:50:52;;;;;;;;;;;;;;;;;;5046465;28;20022;-63
2022/01/11 15:53:18;;;;;;;;;;;;;;;;;;5046417;28;19924;-66
2022/01/11 15:55:44;;;;;;;;;;;;;;;;;;5041569;28;20259;-62
2022/01/11 15:58:10;;;;;;;;;;;;;;;;;;5043863;28;20007;-63
2022/01/11 16:00:36;;;;;;;;;;;;;;;;;;5043082;28;19937;-63
2022/01/11 16:03:02;;;;;;;;;;;;;;;;;;5044065;28;20065;-66
2022/01/11 16:05:28;;;;;;;;;;;;;;;;;;5040143;28;19967;-63
2022/01/11 16:07:54;;;;;;;;;;;;;;;;;;5041516;28;20305;-63
2022/01/11 16:10:20;;;;;;;;;;;;;;;;;;5039685;28;19933;-63
2022/01/11 16:12:46;;;;;;;;;;;;;;;;;;5040445;28;20333;-63
2022/01/11 16:15:12;;;;;;;;;;;;;;;;;;5038658;28;20393;-63
2022/01/11 16:17:38;;;;;;;;;;;;;;;;;;5040382;28;19932;-63
2022/01/11 16:20:04;;;;;;;;;;;;;;;;;;5040793;28;19924;-63
2022/01/11 16:22:31;;;;;;;;;;;;;;;;;;5042703;28;19925;-63
2022/01/11 16:24:57;;;;;;;;;;;;;;;;;;5039919;28;19955;-64
2022/01/11 16:27:23;;;;;;;;;;;;;;;;;;5041910;28;19951;-63
2022/01/11 16:29:49;;;;;;;;;;;;;;;;;;5040493;28;19925;-63
2022/01/11 16:32:15;;;;;;;;;;;;;;;;;;5040556;28;19995;-64
2022/01/11 16:34:41;;;;;;;;;;;;;;;;;;5038328;28;19944;-65
2022/01/11 16:37:13;;;;;;;;;;;;;;;;;;5040972;28;19933;-65
2022/01/11 16:42:38;;;;;;;;;;;;;;;;;;5052053;28;19990;-64
2022/01/11 16:45:04;;;;;;;;;;;;;;;;;;5062313;28;20408;-64
2022/01/11 16:47:30;;;;;;;;;;;;;;;;;;5062012;28;20417;-64